Time;durP1;ratioP1;P1;durP2;ratioP2;P2;SDS_P1;SDS_P2;PMS_P1;PMS_P2;Temp;Humidity;BMP_temperature;BMP_pressure;BME280_temperature;BME280_humidity;BME280_pressure;Samples;Min_cycle;Max_cycle;Signal;HPM_P1;HPM_P2
2022/02/25 00:01:32;;;;;;;16.27;3.57;;;23.00;91.70;;;;;;5051429;28;20184;-76
2022/02/25 00:04:00;;;;;;;17.83;3.03;;;22.90;91.80;;;;;;5042975;28;20196;-77
2022/02/25 00:06:27;;;;;;;17.13;2.93;;;22.80;91.40;;;;;;5051781;28;20176;-77
2022/02/25 00:08:54;;;;;;;14.17;3.00;;;22.80;91.80;;;;;;5048785;28;20516;-77
2022/02/25 00:11:25;;;;;;;14.20;3.00;;;22.70;91.80;;;;;;5050138;28;20211;-77
2022/02/25 00:13:52;;;;;;;13.93;3.10;;;22.60;92.50;;;;;;5049213;28;20192;-77
2022/02/25 00:16:19;;;;;;;11.63;2.77;;;22.50;92.60;;;;;;5048161;28;20195;-74
2022/02/25 00:18:47;;;;;;;9.27;2.50;;;22.50;92.50;;;;;;5053231;28;20183;-76
2022/02/25 00:21:14;;;;;;;12.30;2.73;;;22.40;92.60;;;;;;5051135;28;20597;-76
2022/02/25 00:23:42;;;;;;;13.57;2.87;;;22.40;92.90;;;;;;5053498;28;20215;-77
2022/02/25 00:26:09;;;;;;;8.77;2.03;;;22.40;92.90;;;;;;5053257;28;20184;-76
2022/02/25 00:28:37;;;;;;;9.53;2.97;;;22.40;92.50;;;;;;5049797;28;20573;-79
2022/02/25 00:31:04;;;;;;;16.83;2.80;;;22.40;93.40;;;;;;5051781;28;20212;-76
2022/02/25 00:33:31;;;;;;;10.40;2.20;;;22.40;93.40;;;;;;5051743;28;20199;-75
2022/02/25 00:35:59;;;;;;;8.13;1.90;;;22.40;93.20;;;;;;5052623;28;20231;-76
2022/02/25 00:38:26;;;;;;;13.80;2.43;;;22.30;92.90;;;;;;5051741;28;20188;-79
2022/02/25 00:40:54;;;;;;;9.33;2.20;;;22.30;93.00;;;;;;5052374;28;20180;-76
2022/02/25 00:43:21;;;;;;;7.13;1.60;;;22.30;92.90;;;;;;5051513;28;20176;-72
2022/02/25 00:45:48;;;;;;;9.50;2.30;;;22.20;92.80;;;;;;5048189;28;20654;-72
2022/02/25 00:48:16;;;;;;;12.77;2.30;;;22.20;92.60;;;;;;5052801;28;20180;-72
2022/02/25 00:50:44;;;;;;;9.57;2.57;;;22.00;93.00;;;;;;5051420;28;20223;-71
2022/02/25 00:53:11;;;;;;;10.43;2.83;;;22.00;93.20;;;;;;5052759;28;20263;-72
2022/02/25 00:55:39;;;;;;;9.20;2.27;;;22.10;93.80;;;;;;5052383;28;20172;-74
2022/02/25 00:58:06;;;;;;;9.57;2.03;;;22.00;93.00;;;;;;5052853;28;20193;-78
2022/02/25 01:00:34;;;;;;;10.60;2.33;;;22.00;93.40;;;;;;5052685;28;20180;-77
2022/02/25 01:03:01;;;;;;;13.87;2.60;;;22.00;93.20;;;;;;5049206;28;20229;-78
2022/02/25 01:05:29;;;;;;;7.53;2.30;;;22.00;93.70;;;;;;5053460;28;20184;-74
2022/02/25 01:07:57;;;;;;;11.50;2.43;;;22.00;93.30;;;;;;5048727;28;20535;-76
2022/02/25 01:10:24;;;;;;;14.87;2.80;;;22.00;93.50;;;;;;5052585;28;20567;-77
2022/02/25 01:12:51;;;;;;;10.93;2.50;;;22.10;93.60;;;;;;5052123;28;20275;-77
2022/02/25 01:15:19;;;;;;;13.70;2.70;;;22.20;93.80;;;;;;5053269;28;20195;-74
2022/02/25 01:17:46;;;;;;;7.10;2.20;;;22.10;93.00;;;;;;5050620;28;20177;-76
2022/02/25 01:20:15;;;;;;;10.80;3.00;;;22.30;93.60;;;;;;5059236;28;20269;-76
2022/02/25 01:22:44;;;;;;;11.17;2.27;;;22.40;93.40;;;;;;5052643;28;20183;-76
2022/02/25 01:25:13;;;;;;;10.73;2.57;;;22.60;93.40;;;;;;5053111;28;20226;-75
2022/02/25 01:27:41;;;;;;;8.93;2.23;;;22.80;93.60;;;;;;5050359;28;20180;-75
2022/02/25 01:30:10;;;;;;;9.83;2.80;;;23.00;92.90;;;;;;5052321;28;20186;-74
2022/02/25 01:32:38;;;;;;;8.53;2.43;;;23.20;92.30;;;;;;5053158;28;20226;-75
2022/02/25 01:35:06;;;;;;;8.97;2.20;;;23.30;92.20;;;;;;5052630;28;20172;-75
2022/02/25 01:37:33;;;;;;;8.30;2.27;;;23.50;92.10;;;;;;5052845;28;20168;-78
2022/02/25 01:40:01;;;;;;;10.60;2.43;;;23.50;91.40;;;;;;5051675;28;20507;-73
2022/02/25 01:42:28;;;;;;;6.63;2.30;;;23.50;91.40;;;;;;5050188;28;20176;-81
2022/02/25 01:44:55;;;;;;;13.17;3.03;;;23.50;91.20;;;;;;5052397;28;20222;-73
2022/02/25 01:47:23;;;;;;;11.23;2.77;;;23.60;91.10;;;;;;5052345;28;20251;-80
2022/02/25 01:49:50;;;;;;;13.33;3.33;;;23.40;90.80;;;;;;5049936;28;20655;-76
2022/02/25 01:52:20;;;;;;;10.10;2.90;;;23.40;91.60;;;;;;5052058;28;20232;-74
2022/02/25 01:54:48;;;;;;;12.00;3.33;;;23.30;91.70;;;;;;5052155;28;20596;-77
2022/02/25 01:57:17;;;;;;;13.10;3.47;;;23.40;91.80;;;;;;5051092;28;20335;-74
2022/02/25 01:59:45;;;;;;;7.97;3.20;;;23.30;91.80;;;;;;5051217;28;20190;-72
2022/02/25 02:02:12;;;;;;;14.07;4.23;;;23.30;92.40;;;;;;5050134;28;20223;-73
2022/02/25 02:04:40;;;;;;;10.00;3.37;;;23.30;91.80;;;;;;5052051;28;20168;-73
2022/02/25 02:07:10;;;;;;;10.47;3.30;;;23.50;91.40;;;;;;5045641;28;20184;-74
2022/02/25 02:09:38;;;;;;;11.60;3.87;;;23.60;91.20;;;;;;5052368;28;20621;-77
2022/02/25 02:12:06;;;;;;;8.83;3.43;;;23.80;90.80;;;;;;5052185;28;20211;-74
2022/02/25 02:14:33;;;;;;;11.43;3.47;;;24.10;90.30;;;;;;5052079;28;20172;-74
2022/02/25 02:17:04;;;;;;;10.60;3.83;;;24.30;89.10;;;;;;5051820;28;20198;-74
2022/02/25 02:19:32;;;;;;;16.97;4.97;;;24.50;88.90;;;;;;5052206;28;20184;-76
2022/02/25 02:21:59;;;;;;;11.27;3.77;;;24.60;88.50;;;;;;5052053;28;20191;-76
2022/02/25 02:24:27;;;;;;;9.77;3.50;;;24.70;87.80;;;;;;5052345;28;20267;-74
2022/02/25 02:26:56;;;;;;;8.90;3.03;;;24.70;88.00;;;;;;5051435;28;20245;-75
2022/02/25 02:29:24;;;;;;;7.77;2.30;;;24.60;87.50;;;;;;5049495;28;20192;-75
2022/02/25 02:31:52;;;;;;;7.57;2.77;;;24.40;87.40;;;;;;5051752;28;20226;-77
2022/02/25 02:34:20;;;;;;;15.33;3.00;;;24.50;88.30;;;;;;5051502;28;20180;-75
2022/02/25 02:36:47;;;;;;;10.93;2.27;;;24.60;88.00;;;;;;5048355;28;20555;-74
2022/02/25 02:39:16;;;;;;;10.07;3.03;;;24.50;87.80;;;;;;5051275;28;20231;-77
2022/02/25 02:41:46;;;;;;;7.13;2.63;;;24.50;87.10;;;;;;5051501;28;20184;-77
2022/02/25 02:44:14;;;;;;;9.47;2.57;;;24.40;88.00;;;;;;5049508;28;20191;-75
2022/02/25 02:46:41;;;;;;;8.97;2.80;;;24.50;87.60;;;;;;5051580;28;20597;-79
2022/02/25 02:49:09;;;;;;;14.63;3.13;;;24.40;87.20;;;;;;5047390;28;20199;-76
2022/02/25 02:51:36;;;;;;;7.93;2.60;;;24.50;86.90;;;;;;5045946;28;20226;-77
2022/02/25 02:54:04;;;;;;;16.03;6.20;;;24.50;87.30;;;;;;5046595;28;20183;-73
2022/02/25 02:56:31;;;;;;;13.97;4.10;;;24.30;88.10;;;;;;5051876;28;20541;-74
2022/02/25 02:58:59;;;;;;;11.63;3.07;;;24.30;88.50;;;;;;5051389;28;20199;-76
2022/02/25 03:01:28;;;;;;;11.07;3.10;;;24.00;88.30;;;;;;5051312;28;20184;-75
2022/02/25 03:03:58;;;;;;;9.13;2.70;;;24.00;87.70;;;;;;5050877;28;20283;-75
2022/02/25 03:06:27;;;;;;;8.40;2.67;;;24.30;87.90;;;;;;5051646;28;20172;-74
2022/02/25 03:08:55;;;;;;;11.67;2.60;;;24.50;86.10;;;;;;5050419;28;20180;-75
2022/02/25 03:11:23;;;;;;;10.10;2.80;;;24.60;86.70;;;;;;5051260;28;20282;-74
2022/02/25 03:13:51;;;;;;;17.10;2.90;;;24.70;87.50;;;;;;5051394;28;20176;-76
2022/02/25 03:16:21;;;;;;;9.57;2.80;;;24.40;86.50;;;;;;5051342;28;20172;-79
2022/02/25 03:18:49;;;;;;;11.40;3.33;;;24.20;88.20;;;;;;5050325;28;20183;-79
2022/02/25 03:21:18;;;;;;;11.03;2.77;;;24.10;88.70;;;;;;5055121;28;20198;-75
2022/02/25 03:23:45;;;;;;;13.20;3.10;;;24.00;88.80;;;;;;5051259;28;20587;-74
2022/02/25 03:26:12;;;;;;;10.87;2.83;;;23.90;89.10;;;;;;5054500;28;20195;-78
2022/02/25 03:28:40;;;;;;;5.30;1.90;;;24.00;89.50;;;;;;5050337;28;20195;-82
2022/02/25 03:31:07;;;;;;;11.40;2.30;;;23.90;90.00;;;;;;5050924;28;20224;-75
2022/02/25 03:33:35;;;;;;;8.70;2.10;;;23.70;90.10;;;;;;5053662;28;20183;-76
2022/02/25 03:36:02;;;;;;;10.37;2.53;;;23.70;90.60;;;;;;5054558;28;20231;-75
2022/02/25 03:38:30;;;;;;;9.23;2.17;;;23.70;90.30;;;;;;5053573;28;20329;-75
2022/02/25 03:40:57;;;;;;;11.93;2.87;;;23.90;90.90;;;;;;5054641;28;20654;-74
2022/02/25 03:43:25;;;;;;;9.40;2.50;;;24.00;90.00;;;;;;5054849;28;20642;-73
2022/02/25 03:45:52;;;;;;;7.73;1.90;;;24.20;90.30;;;;;;5054138;28;20207;-78
2022/02/25 03:48:20;;;;;;;13.00;2.23;;;24.40;89.80;;;;;;5054035;28;20204;-77
2022/02/25 03:50:47;;;;;;;7.37;2.27;;;24.50;88.00;;;;;;5051758;28;20237;-79
2022/02/25 03:53:15;;;;;;;7.73;2.20;;;24.60;88.10;;;;;;5054793;28;20184;-76
2022/02/25 03:55:43;;;;;;;9.80;2.37;;;24.50;87.30;;;;;;5053300;28;20180;-80
2022/02/25 03:58:10;;;;;;;15.60;4.77;;;24.30;88.20;;;;;;5052204;28;20267;-77
2022/02/25 04:00:38;;;;;;;13.60;3.83;;;24.00;91.00;;;;;;5052158;28;20198;-72
2022/02/25 04:03:05;;;;;;;8.57;3.30;;;23.40;91.70;;;;;;5050986;28;20386;-71
2022/02/25 04:05:33;;;;;;;8.63;2.17;;;23.00;91.90;;;;;;5053586;28;20188;-79
2022/02/25 04:08:00;;;;;;;5.63;1.20;;;22.80;92.10;;;;;;5050104;28;20600;-77
2022/02/25 04:10:27;;;;;;;4.47;1.60;;;22.50;90.20;;;;;;5048847;28;20176;-77
2022/02/25 04:12:55;;;;;;;4.50;1.67;;;22.60;92.00;;;;;;5053778;28;21026;-78
2022/02/25 04:15:22;;;;;;;4.03;1.50;;;22.50;92.00;;;;;;5054181;28;20179;-77
2022/02/25 04:17:49;;;;;;;3.20;1.00;;;22.40;90.90;;;;;;5053482;28;20242;-82
2022/02/25 04:20:17;;;;;;;5.40;1.30;;;22.20;90.40;;;;;;5053870;28;20233;-83
2022/02/25 04:22:44;;;;;;;2.63;0.80;;;22.20;89.40;;;;;;5053598;28;20215;-82
2022/02/25 04:25:13;;;;;;;4.80;1.07;;;22.30;89.70;;;;;;5048572;28;20184;-78
2022/02/25 04:27:41;;;;;;;3.90;1.27;;;22.50;90.10;;;;;;5050568;28;20200;-75
2022/02/25 04:30:09;;;;;;;1.93;0.97;;;22.80;90.50;;;;;;5050789;28;20194;-79
2022/02/25 04:32:36;;;;;;;2.00;0.80;;;23.00;90.20;;;;;;5053383;28;20665;-75
2022/02/25 04:35:05;;;;;;;6.90;1.37;;;23.20;89.80;;;;;;5050985;28;20210;-78
2022/02/25 04:37:33;;;;;;;2.87;1.37;;;23.30;89.80;;;;;;5052618;28;20234;-73
2022/02/25 04:40:00;;;;;;;5.97;2.07;;;23.50;89.20;;;;;;5053096;28;20176;-75
2022/02/25 04:42:27;;;;;;;4.77;1.30;;;23.70;89.20;;;;;;5053399;28;20548;-73
2022/02/25 04:44:55;;;;;;;2.50;1.20;;;23.90;88.40;;;;;;5052198;28;20184;-74
2022/02/25 04:47:22;;;;;;;7.03;2.17;;;24.30;87.50;;;;;;5052704;28;20584;-75
2022/02/25 04:49:49;;;;;;;7.73;2.80;;;24.40;86.70;;;;;;5051595;28;20184;-73
2022/02/25 04:52:17;;;;;;;9.43;2.43;;;24.60;86.20;;;;;;5050965;28;20219;-73
2022/02/25 04:54:45;;;;;;;6.60;2.30;;;24.80;85.60;;;;;;5053142;28;20314;-74
2022/02/25 04:57:13;;;;;;;10.47;2.10;;;25.00;84.50;;;;;;5052658;28;20195;-73
2022/02/25 04:59:40;;;;;;;5.90;2.27;;;25.30;84.50;;;;;;5053428;28;20187;-76
2022/02/25 05:02:08;;;;;;;9.80;2.27;;;25.40;84.70;;;;;;5051481;28;20187;-73
2022/02/25 05:04:36;;;;;;;9.40;3.10;;;25.50;83.80;;;;;;5050509;28;20184;-74
2022/02/25 05:07:04;;;;;;;9.43;2.37;;;25.40;83.80;;;;;;5052252;28;20191;-74
2022/02/25 05:09:31;;;;;;;9.97;2.13;;;25.40;84.60;;;;;;5053234;28;20646;-75
2022/02/25 05:11:59;;;;;;;7.13;2.50;;;25.40;85.20;;;;;;5052102;28;20216;-76
2022/02/25 05:22:45;;;;;;;13.40;3.43;;;25.10;86.50;;;;;;5050643;28;20226;-74
2022/02/25 05:25:12;;;;;;;13.93;2.73;;;25.20;86.90;;;;;;5050096;28;20215;-77
2022/02/25 05:27:40;;;;;;;9.93;2.77;;;25.20;86.30;;;;;;5049104;28;20246;-74
2022/02/25 05:30:07;;;;;;;17.50;4.50;;;25.20;85.90;;;;;;5048820;28;20172;-74
2022/02/25 05:32:35;;;;;;;12.27;5.37;;;25.10;86.70;;;;;;5052165;28;20261;-74
2022/02/25 05:35:02;;;;;;;16.77;3.83;;;24.80;87.50;;;;;;5051850;28;20180;-80
2022/02/25 05:37:30;;;;;;;11.93;3.90;;;24.80;88.00;;;;;;5052668;28;20180;-87
2022/02/25 05:39:57;;;;;;;12.17;2.83;;;24.90;88.00;;;;;;5048697;28;20184;-79
2022/02/25 05:42:24;;;;;;;12.37;2.77;;;25.00;87.20;;;;;;5051315;28;20191;-74
2022/02/25 05:44:52;;;;;;;13.33;2.73;;;25.10;86.60;;;;;;5052790;28;20187;-73
2022/02/25 05:47:19;;;;;;;10.00;2.70;;;25.20;86.60;;;;;;5052382;28;20227;-78
2022/02/25 05:49:46;;;;;;;12.83;3.13;;;25.30;86.40;;;;;;5053565;28;20634;-76
2022/02/25 05:52:14;;;;;;;14.27;3.20;;;25.30;86.70;;;;;;5050930;28;20230;-77
2022/02/25 05:54:41;;;;;;;13.73;2.83;;;25.30;86.20;;;;;;5050507;28;20184;-72
2022/02/25 05:57:08;;;;;;;11.53;2.63;;;25.30;85.60;;;;;;5048121;28;20180;-73
2022/02/25 05:59:36;;;;;;;13.10;2.97;;;25.20;85.90;;;;;;5051418;28;20183;-73
2022/02/25 06:02:04;;;;;;;12.00;4.10;;;25.30;86.30;;;;;;5048309;28;20180;-74
2022/02/25 06:04:31;;;;;;;14.23;3.10;;;25.30;85.70;;;;;;5050673;28;20178;-73
2022/02/25 06:06:59;;;;;;;13.53;2.83;;;25.20;86.10;;;;;;5052015;28;20238;-76
2022/02/25 06:09:27;;;;;;;15.77;3.70;;;25.20;85.50;;;;;;5051826;28;20200;-71
2022/02/25 06:11:54;;;;;;;13.07;2.83;;;25.00;86.10;;;;;;5050093;28;20243;-75
2022/02/25 06:14:21;;;;;;;14.83;3.00;;;24.90;86.30;;;;;;5050807;28;20179;-73
2022/02/25 06:16:49;;;;;;;13.30;3.37;;;24.80;87.00;;;;;;5049585;28;20194;-74
2022/02/25 06:19:16;;;;;;;15.17;2.80;;;24.70;86.90;;;;;;5050877;28;20198;-74
2022/02/25 06:21:43;;;;;;;16.60;3.50;;;24.50;87.30;;;;;;5051380;28;20211;-74
2022/02/25 06:24:11;;;;;;;21.80;3.90;;;24.40;87.70;;;;;;5048152;28;20176;-75
2022/02/25 06:26:38;;;;;;;17.93;4.40;;;24.30;87.90;;;;;;5050812;28;20250;-72
2022/02/25 06:29:07;;;;;;;18.67;4.07;;;24.20;88.60;;;;;;5049119;28;20175;-73
2022/02/25 06:31:34;;;;;;;17.63;4.50;;;24.20;88.50;;;;;;5051112;28;20227;-74
2022/02/25 06:34:02;;;;;;;17.67;3.60;;;24.00;89.00;;;;;;5047304;28;20539;-74
2022/02/25 06:36:29;;;;;;;20.53;4.27;;;24.10;89.30;;;;;;5048177;28;20188;-76
2022/02/25 06:38:56;;;;;;;17.47;4.10;;;24.00;89.50;;;;;;5050477;28;20179;-75
2022/02/25 06:41:26;;;;;;;18.80;3.97;;;24.00;89.60;;;;;;5051092;28;20176;-78
2022/02/25 06:43:56;;;;;;;21.00;4.50;;;24.00;89.60;;;;;;5050859;28;20183;-76
2022/02/25 06:46:24;;;;;;;18.90;3.87;;;24.00;90.10;;;;;;5051185;28;20311;-77
2022/02/25 06:48:52;;;;;;;22.07;3.87;;;23.90;89.80;;;;;;5051384;28;20649;-75
2022/02/25 06:51:19;;;;;;;29.40;5.73;;;23.80;89.90;;;;;;5050984;28;20264;-78
2022/02/25 06:53:46;;;;;;;16.90;3.40;;;23.80;90.20;;;;;;5049967;28;20183;-77
2022/02/25 06:56:14;;;;;;;17.07;3.67;;;23.60;88.90;;;;;;5050387;28;20175;-77
2022/02/25 06:58:41;;;;;;;19.33;2.80;;;23.40;88.40;;;;;;5056717;28;20593;-77
2022/02/25 07:01:09;;;;;;;10.00;2.23;;;23.30;88.00;;;;;;5057296;28;20232;-78
2022/02/25 07:03:36;;;;;;;9.27;2.50;;;23.10;87.80;;;;;;5057487;28;20184;-81
2022/02/25 07:06:05;;;;;;;8.13;2.33;;;23.00;87.10;;;;;;5057210;28;20187;-82
2022/02/25 07:08:32;;;;;;;8.87;2.50;;;22.90;87.10;;;;;;5056911;28;20179;-81
2022/02/25 07:11:00;;;;;;;7.47;1.87;;;22.90;87.40;;;;;;5056537;28;20223;-79
2022/02/25 07:13:27;;;;;;;8.37;1.93;;;22.90;87.90;;;;;;5050233;28;20184;-79
2022/02/25 07:15:58;;;;;;;8.23;1.87;;;22.90;88.00;;;;;;5057050;28;20282;-79
2022/02/25 07:18:25;;;;;;;8.93;2.43;;;22.90;87.90;;;;;;5058664;28;20230;-80
2022/02/25 07:20:53;;;;;;;4.50;2.00;;;22.90;88.40;;;;;;5057325;28;20623;-79
2022/02/25 07:23:20;;;;;;;7.70;2.30;;;22.90;88.80;;;;;;5057514;28;20634;-77
2022/02/25 07:25:47;;;;;;;8.43;2.60;;;22.80;89.10;;;;;;5054785;28;20176;-78
2022/02/25 07:28:15;;;;;;;10.57;3.13;;;22.80;89.20;;;;;;5053688;28;20279;-78
2022/02/25 07:30:42;;;;;;;8.67;2.80;;;22.80;89.20;;;;;;5073012;28;20542;-77
2022/02/25 07:33:09;;;;;;;13.57;9.33;;;22.70;89.30;;;;;;5057889;28;20188;-78
2022/02/25 07:35:37;;;;;;;14.57;4.60;;;22.60;89.80;;;;;;5058067;28;20626;-77
2022/02/25 07:38:04;;;;;;;13.67;3.57;;;22.50;90.10;;;;;;5056333;28;20195;-78
2022/02/25 07:40:32;;;;;;;9.13;2.90;;;22.50;90.10;;;;;;5058149;28;20172;-77
2022/02/25 07:42:59;;;;;;;9.73;4.10;;;22.40;90.30;;;;;;5057339;28;20188;-78
2022/02/25 07:45:27;;;;;;;10.43;4.77;;;22.40;90.40;;;;;;5058203;28;20660;-77
2022/02/25 07:47:55;;;;;;;10.67;4.37;;;22.40;90.60;;;;;;5057504;28;20238;-78
2022/02/25 07:50:22;;;;;;;11.67;4.40;;;22.30;90.70;;;;;;5058019;28;20203;-78
2022/02/25 07:52:50;;;;;;;13.07;4.67;;;22.40;90.70;;;;;;5057548;28;20693;-77
2022/02/25 07:55:17;;;;;;;12.03;4.17;;;22.30;90.90;;;;;;5057845;28;20175;-79
2022/02/25 07:57:45;;;;;;;14.97;5.00;;;22.30;91.00;;;;;;5057380;28;20626;-78
2022/02/25 08:00:15;;;;;;;15.00;5.17;;;22.30;91.00;;;;;;5057183;28;20176;-76
2022/02/25 08:02:44;;;;;;;19.07;5.53;;;22.30;91.30;;;;;;5057830;28;20300;-80
2022/02/25 08:05:12;;;;;;;18.13;5.33;;;22.30;91.50;;;;;;5053771;28;20180;-78
2022/02/25 08:07:39;;;;;;;17.20;5.20;;;22.30;91.70;;;;;;5054661;28;20560;-79
2022/02/25 08:10:07;;;;;;;18.40;6.13;;;22.30;92.10;;;;;;5054377;28;20188;-78
2022/02/25 08:12:35;;;;;;;13.63;5.53;;;22.40;92.40;;;;;;5054365;28;20580;-78
2022/02/25 08:15:02;;;;;;;22.83;5.73;;;22.40;92.40;;;;;;5054261;28;20183;-76
2022/02/25 08:17:30;;;;;;;17.50;5.47;;;22.40;92.70;;;;;;5054297;28;20270;-75
2022/02/25 08:19:57;;;;;;;19.57;4.70;;;22.40;92.90;;;;;;5054251;28;20187;-77
2022/02/25 08:22:24;;;;;;;23.67;6.17;;;22.30;92.60;;;;;;5054223;28;20671;-77
2022/02/25 08:24:52;;;;;;;18.77;5.43;;;22.30;92.70;;;;;;5054176;28;20207;-76
2022/02/25 08:27:19;;;;;;;22.90;5.47;;;22.30;92.80;;;;;;5049676;28;20268;-78
2022/02/25 08:29:46;;;;;;;21.07;5.43;;;22.30;92.70;;;;;;5052230;28;20180;-77
2022/02/25 08:32:14;;;;;;;21.77;6.03;;;22.30;92.80;;;;;;5054282;28;20209;-76
2022/02/25 08:34:41;;;;;;;18.40;5.73;;;22.30;92.90;;;;;;5054518;28;20699;-75
2022/02/25 08:37:09;;;;;;;17.00;4.87;;;22.30;93.20;;;;;;5053928;28;20194;-74
2022/02/25 08:39:36;;;;;;;21.40;4.93;;;22.30;93.10;;;;;;5054394;28;20246;-72
2022/02/25 08:42:04;;;;;;;20.50;5.67;;;22.30;92.90;;;;;;5054135;28;20184;-71
2022/02/25 08:44:32;;;;;;;16.23;5.30;;;22.30;92.90;;;;;;5054035;28;20195;-73
2022/02/25 08:46:59;;;;;;;19.47;5.87;;;22.30;93.00;;;;;;5053481;28;20219;-77
2022/02/25 08:49:26;;;;;;;17.50;5.40;;;22.20;93.20;;;;;;5054556;28;20266;-79
2022/02/25 08:51:54;;;;;;;18.33;5.80;;;22.20;93.40;;;;;;5053585;28;20243;-80
2022/02/25 08:54:21;;;;;;;17.73;5.47;;;22.20;93.60;;;;;;5051521;28;20180;-80
2022/02/25 08:56:48;;;;;;;21.40;5.90;;;22.20;93.60;;;;;;5053597;28;20176;-80
2022/02/25 08:59:16;;;;;;;17.67;5.80;;;22.20;93.60;;;;;;5047595;28;20180;-70
2022/02/25 09:01:43;;;;;;;21.17;6.10;;;22.20;93.60;;;;;;5053838;28;20291;-71
2022/02/25 09:04:10;;;;;;;16.07;5.57;;;22.20;93.80;;;;;;5054575;28;20215;-76
2022/02/25 09:06:40;;;;;;;14.60;5.80;;;22.20;93.90;;;;;;5053041;28;20337;-74
2022/02/25 09:09:07;;;;;;;19.50;6.50;;;22.10;94.00;;;;;;5050280;28;20588;-74
2022/02/25 09:11:34;;;;;;;21.07;6.73;;;22.10;94.10;;;;;;5052276;28;20558;-76
2022/02/25 09:14:02;;;;;;;24.70;6.97;;;22.10;94.30;;;;;;5052562;28;20191;-74
2022/02/25 09:16:29;;;;;;;24.10;6.90;;;22.10;94.50;;;;;;5051394;28;20619;-75
2022/02/25 09:18:56;;;;;;;25.67;6.97;;;22.10;94.70;;;;;;5052446;28;20630;-76
2022/02/25 09:21:24;;;;;;;22.30;6.67;;;22.20;94.80;;;;;;5052316;28;20634;-77
2022/02/25 09:23:51;;;;;;;19.10;6.77;;;22.10;94.80;;;;;;5050711;28;20195;-77
2022/02/25 09:26:18;;;;;;;17.40;6.13;;;22.20;94.80;;;;;;5046511;28;20172;-78
2022/02/25 09:28:46;;;;;;;17.17;7.47;;;22.20;94.90;;;;;;5045928;28;20177;-76
2022/02/25 09:31:13;;;;;;;20.30;6.53;;;22.10;94.90;;;;;;5052070;28;20215;-77
2022/02/25 09:33:42;;;;;;;22.27;6.87;;;22.10;94.90;;;;;;5052068;28;20180;-76
2022/02/25 09:36:12;;;;;;;25.83;8.63;;;22.10;95.00;;;;;;5052093;28;20192;-76
2022/02/25 09:38:40;;;;;;;32.10;14.27;;;22.10;95.10;;;;;;5052062;28;20215;-75
2022/02/25 09:41:10;;;;;;;31.60;16.77;;;22.20;95.30;;;;;;5043838;28;20267;-74
2022/02/25 09:43:38;;;;;;;21.33;8.17;;;22.20;95.30;;;;;;5052108;28;20532;-77
2022/02/25 09:46:07;;;;;;;31.83;6.27;;;22.20;95.30;;;;;;5052402;28;20372;-78
2022/02/25 09:48:34;;;;;;;26.27;5.57;;;22.30;95.50;;;;;;5052130;28;20183;-77
2022/02/25 09:51:02;;;;;;;33.03;6.60;;;22.30;95.60;;;;;;5051857;28;20293;-75
2022/02/25 09:53:30;;;;;;;31.73;5.33;;;22.30;95.60;;;;;;5052774;28;21490;-74
2022/02/25 09:55:57;;;;;;;31.17;6.47;;;22.30;95.40;;;;;;5048460;28;20190;-73
2022/02/25 09:58:24;;;;;;;33.97;7.13;;;22.30;95.30;;;;;;5052281;28;20180;-73
2022/02/25 10:00:52;;;;;;;27.00;5.73;;;22.30;95.30;;;;;;5052181;28;20187;-72
2022/02/25 10:03:30;;;;;;;31.47;7.33;;;22.30;95.30;;;;;;5052252;28;20266;-73
2022/02/25 10:06:08;;;;;;;28.27;5.93;;;22.30;95.20;;;;;;5052402;28;20183;-73
2022/02/25 10:08:37;;;;;;;44.03;8.60;;;22.30;95.20;;;;;;5052603;28;20235;-73
2022/02/25 10:11:05;;;;;;;36.97;14.20;;;22.30;95.20;;;;;;5052039;28;20200;-71
2022/02/25 10:13:34;;;;;;;34.63;8.43;;;22.30;95.20;;;;;;5043637;28;20194;-71
2022/02/25 10:16:09;;;;;;;29.37;6.43;;;22.20;95.10;;;;;;5052230;28;20210;-73
2022/02/25 10:18:36;;;;;;;27.93;5.57;;;22.20;95.00;;;;;;5052301;28;20187;-72
2022/02/25 10:21:11;;;;;;;31.93;5.97;;;22.20;94.80;;;;;;5052020;28;20194;-72
2022/02/25 10:23:46;;;;;;;28.33;5.70;;;22.20;94.80;;;;;;5052106;28;20190;-73
2022/02/25 10:26:16;;;;;;;30.17;4.97;;;22.20;94.80;;;;;;5045554;28;20715;-72
2022/02/25 10:28:47;;;;;;;29.07;5.83;;;22.20;94.70;;;;;;5044890;28;20261;-71
2022/02/25 10:31:25;;;;;;;31.60;5.90;;;22.10;94.70;;;;;;5051996;28;20223;-72
2022/02/25 10:34:11;;;;;;;26.67;6.13;;;22.20;94.80;;;;;;5051041;28;20211;-71
2022/02/25 10:36:46;;;;;;;23.27;4.83;;;22.10;94.80;;;;;;5051713;28;20195;-72
2022/02/25 10:39:17;;;;;;;25.13;5.37;;;22.10;94.80;;;;;;5047773;28;20199;-72
2022/02/25 10:42:00;;;;;;;31.23;6.27;;;22.10;95.00;;;;;;5051392;28;20191;-72
2022/02/25 10:44:49;;;;;;;34.73;5.83;;;22.10;95.00;;;;;;5047665;28;20172;-72
2022/02/25 10:47:18;;;;;;;24.27;5.57;;;22.00;95.10;;;;;;5051498;28;20750;-71
2022/02/25 10:49:47;;;;;;;28.03;5.27;;;22.00;95.10;;;;;;5051773;28;20211;-73
2022/02/25 10:52:23;;;;;;;23.43;4.43;;;22.00;95.10;;;;;;5051705;28;20289;-72
2022/02/25 10:54:52;;;;;;;35.27;6.20;;;22.00;95.10;;;;;;5049567;28;20259;-72
2022/02/25 10:57:20;;;;;;;29.67;5.33;;;22.00;94.90;;;;;;5044008;28;20188;-71
2022/02/25 10:59:48;;;;;;;23.80;4.90;;;21.90;94.40;;;;;;5051707;28;20198;-72
2022/02/25 11:02:39;;;;;;;28.97;5.23;;;21.90;94.40;;;;;;5051611;28;20196;-72
2022/02/25 11:05:18;;;;;;;21.73;4.03;;;21.90;94.50;;;;;;5050444;28;20220;-73
2022/02/25 11:07:49;;;;;;;22.43;5.00;;;21.90;94.50;;;;;;5051765;28;20673;-72
2022/02/25 11:10:21;;;;;;;23.23;4.37;;;21.80;94.20;;;;;;5051475;28;20191;-72
2022/02/25 11:12:51;;;;;;;24.40;4.90;;;21.80;93.70;;;;;;5051627;28;20273;-72
2022/02/25 11:15:23;;;;;;;26.13;12.83;;;21.80;92.50;;;;;;5049998;28;20183;-72
2022/02/25 11:17:52;;;;;;;20.03;4.37;;;21.70;92.60;;;;;;5042361;28;20204;-71
2022/02/25 11:20:24;;;;;;;25.90;4.70;;;21.60;91.90;;;;;;5051723;28;20253;-72
2022/02/25 11:23:06;;;;;;;14.10;3.33;;;21.60;92.10;;;;;;5048346;28;20544;-72
2022/02/25 11:25:35;;;;;;;18.50;3.60;;;21.60;91.90;;;;;;5050950;28;20188;-72
2022/02/25 11:28:03;;;;;;;21.57;4.30;;;21.50;92.20;;;;;;5045765;28;20191;-72
2022/02/25 11:30:33;;;;;;;20.80;4.37;;;21.50;92.00;;;;;;5050002;28;20176;-72
2022/02/25 11:33:04;;;;;;;22.07;5.63;;;21.40;92.30;;;;;;5050608;28;20279;-75
2022/02/25 11:35:38;;;;;;;26.90;10.93;;;21.40;92.30;;;;;;5050385;28;20277;-77
2022/02/25 11:38:11;;;;;;;17.17;4.40;;;21.40;92.30;;;;;;5047208;28;20186;-78
2022/02/25 11:40:53;;;;;;;17.13;4.03;;;21.30;92.50;;;;;;5050226;28;20538;-72
2022/02/25 11:43:52;;;;;;;16.07;3.27;;;21.40;92.50;;;;;;5048316;28;20230;-74
2022/02/25 11:46:32;;;;;;;17.57;3.90;;;21.30;92.40;;;;;;5052548;28;20224;-72
2022/02/25 11:49:23;;;;;;;19.87;3.90;;;21.30;92.40;;;;;;5053632;28;20295;-73
2022/02/25 11:51:53;;;;;;;24.03;3.87;;;21.30;92.50;;;;;;5053441;28;20269;-78
2022/02/25 11:54:26;;;;;;;20.60;3.90;;;21.30;92.60;;;;;;5054478;28;20238;-75
2022/02/25 11:56:59;;;;;;;19.40;3.60;;;21.30;92.80;;;;;;5054212;28;20238;-75
2022/02/25 11:59:49;;;;;;;15.80;3.70;;;21.30;92.80;;;;;;5054515;28;20176;-74
2022/02/25 12:02:22;;;;;;;19.53;3.90;;;21.30;92.50;;;;;;5052850;28;20281;-75
2022/02/25 12:04:55;;;;;;;18.27;3.67;;;21.30;92.70;;;;;;5054102;28;20183;-73
2022/02/25 12:07:41;;;;;;;10.33;3.17;;;21.30;92.20;;;;;;5053520;28;20191;-73
2022/02/25 12:10:12;;;;;;;16.97;3.30;;;21.30;92.20;;;;;;5051281;28;20262;-76
2022/02/25 12:12:44;;;;;;;21.97;3.87;;;21.30;92.30;;;;;;5052349;28;20668;-77
2022/02/25 12:15:33;;;;;;;20.30;4.63;;;21.30;92.50;;;;;;5049897;28;20250;-78
2022/02/25 12:18:02;;;;;;;22.03;3.80;;;21.30;93.00;;;;;;5052886;28;20230;-77
2022/02/25 12:20:37;;;;;;;19.73;3.93;;;21.30;93.00;;;;;;5052985;28;20208;-73
2022/02/25 12:23:08;;;;;;;22.33;3.87;;;21.30;93.30;;;;;;5054031;28;20172;-74
2022/02/25 12:25:42;;;;;;;27.47;4.20;;;21.30;93.40;;;;;;5054053;28;20638;-76
2022/02/25 12:28:33;;;;;;;16.03;3.57;;;21.30;93.30;;;;;;5041273;28;20184;-72
2022/02/25 12:31:11;;;;;;;16.50;2.50;;;21.30;92.20;;;;;;5053765;28;20291;-73
2022/02/25 12:33:44;;;;;;;12.90;2.70;;;21.10;91.10;;;;;;5054173;28;20262;-73
2022/02/25 12:36:16;;;;;;;16.53;2.60;;;20.90;90.90;;;;;;5053607;28;20528;-73
2022/02/25 12:38:47;;;;;;;8.57;2.03;;;20.80;90.80;;;;;;5053855;28;20222;-73
2022/02/25 12:41:21;;;;;;;12.03;2.60;;;20.80;90.90;;;;;;5053600;28;20254;-71
2022/02/25 12:43:54;;;;;;;22.83;2.93;;;20.70;91.00;;;;;;5052073;28;20183;-73
2022/02/25 12:46:23;;;;;;;16.57;2.40;;;20.70;91.80;;;;;;5050793;28;20210;-72
2022/02/25 12:48:52;;;;;;;14.30;2.80;;;20.70;92.00;;;;;;5053671;28;20549;-73
2022/02/25 12:51:21;;;;;;;12.57;2.40;;;20.60;92.10;;;;;;5047710;28;20212;-73
2022/02/25 12:53:49;;;;;;;19.13;2.63;;;20.60;92.40;;;;;;5053700;28;20203;-73
2022/02/25 12:56:54;;;;;;;14.03;2.90;;;20.60;92.30;;;;;;5051573;28;20492;-75